Time;durP1;ratioP1;P1;durP2;ratioP2;P2;SDS_P1;SDS_P2;PMS_P1;PMS_P2;Temp;Humidity;BMP_temperature;BMP_pressure;BME280_temperature;BME280_humidity;BME280_pressure;Samples;Min_cycle;Max_cycle;Signal;HPM_P1;HPM_P2
2022/01/17 00:01:02;;;;;;;;;32.75;29.75;;;;;-147.17;100.00;50247.56;5019517;28;51333;-66
2022/01/17 00:03:28;;;;;;;;;29.25;25.50;;;;;-147.17;100.00;50221.97;5016388;28;51342;-66
2022/01/17 00:05:54;;;;;;;;;29.00;25.25;;;;;-147.17;100.00;50221.97;5035181;28;51059;-70
2022/01/17 00:08:20;;;;;;;;;33.50;30.25;;;;;-147.17;100.00;50225.91;5018755;28;51081;-67
2022/01/17 00:10:46;;;;;;;;;30.00;28.75;;;;;-147.17;100.00;50245.59;5019228;28;50877;-71
2022/01/17 00:13:21;;;;;;;;;28.75;25.25;;;;;-147.17;100.00;50235.75;5039459;28;52353;-67
2022/01/17 00:15:50;;;;;;;;;29.75;29.25;;;;;-147.17;100.00;50257.41;5025823;28;51232;-67
2022/01/17 00:20:46;;;;;;;;;28.25;26.25;;;;;-147.17;100.00;50237.72;5020859;28;50850;-67
2022/01/17 00:23:13;;;;;;;;;30.25;29.00;;;;;-147.17;100.00;50255.44;5034378;28;54106;-67
2022/01/17 00:25:38;;;;;;;;;30.25;27.50;;;;;-147.17;100.00;50249.53;5024967;28;50527;-65
2022/01/17 00:28:04;;;;;;;;;27.75;27.75;;;;;-147.17;100.00;50241.66;5024184;28;51063;-66
2022/01/17 00:30:30;;;;;;;;;30.75;26.00;;;;;-147.17;100.00;50255.44;5027128;28;51244;-67
2022/01/17 00:32:55;;;;;;;;;28.50;26.25;;;;;-147.17;100.00;50253.47;5028336;28;51102;-67
2022/01/17 00:35:20;;;;;;;;;31.50;26.50;;;;;-147.17;100.00;50233.78;5029395;28;51174;-68
2022/01/17 00:37:46;;;;;;;;;28.50;27.00;;;;;-147.17;100.00;50249.53;5024422;28;51213;-64
2022/01/17 00:40:12;;;;;;;;;30.00;29.50;;;;;-147.17;100.00;50221.97;5023784;28;51027;-68
2022/01/17 00:42:38;;;;;;;;;28.50;28.50;;;;;-147.17;100.00;50241.66;5035461;28;51818;-67
2022/01/17 00:45:07;;;;;;;;;31.50;30.00;;;;;-147.17;100.00;50269.22;5025982;28;51158;-66
2022/01/17 00:47:32;;;;;;;;;28.00;26.75;;;;;-147.17;100.00;50233.78;5024773;28;51267;-68
2022/01/17 00:49:58;;;;;;;;;27.50;25.00;;;;;-147.17;100.00;50225.91;5027928;28;51587;-67
2022/01/17 00:52:23;;;;;;;;;34.00;30.25;;;;;-147.17;100.00;50247.56;5019352;28;52191;-67
2022/01/17 00:54:49;;;;;;;;;33.75;30.50;;;;;-147.17;100.00;50247.56;5021155;28;50921;-67
2022/01/17 00:57:14;;;;;;;;;33.25;30.75;;;;;-147.17;100.00;50218.03;5027554;28;51196;-68
2022/01/17 00:59:39;;;;;;;;;25.50;24.50;;;;;-147.17;100.00;50198.34;5032267;28;51241;-67
2022/01/17 01:02:05;;;;;;;;;25.25;23.50;;;;;-147.17;100.00;50229.84;5021634;28;52767;-68
2022/01/17 01:04:31;;;;;;;;;29.50;28.25;;;;;-147.17;100.00;50212.13;5027977;28;51270;-65
2022/01/17 01:06:56;;;;;;;;;30.00;27.50;;;;;-147.17;100.00;50249.53;5041176;28;51012;-67
2022/01/17 01:09:23;;;;;;;;;31.25;26.50;;;;;-147.17;100.00;50206.22;5023396;28;51285;-68
2022/01/17 01:11:48;;;;;;;;;29.75;28.00;;;;;-147.17;100.00;50241.66;5030486;28;52174;-67
2022/01/17 01:14:13;;;;;;;;;31.50;31.25;;;;;-147.17;100.00;50221.97;5039567;28;50947;-69
2022/01/17 01:16:39;;;;;;;;;29.25;27.50;;;;;-147.17;100.00;50208.19;5028021;28;51186;-69
2022/01/17 01:30:08;;;;;;;;;31.75;28.00;;;;;-147.17;100.00;50225.91;5024804;28;51013;-64
2022/01/17 01:32:41;;;;;;;;;36.25;30.25;;;;;-147.17;100.00;50269.22;5031457;28;51895;-64
2022/01/17 01:35:10;;;;;;;;;32.00;29.50;;;;;-147.17;100.00;50245.59;5038089;28;51217;-64
2022/01/17 01:37:35;;;;;;;;;32.25;31.00;;;;;-147.17;100.00;50231.81;5022714;28;51228;-62
2022/01/17 01:40:01;;;;;;;;;29.50;28.75;;;;;-147.17;100.00;50202.28;5026734;28;51358;-64
2022/01/17 01:42:29;;;;;;;;;36.00;35.00;;;;;-147.17;100.00;50231.81;5029275;28;51672;-65
2022/01/17 01:44:55;;;;;;;;;33.25;31.50;;;;;-147.17;100.00;50245.59;5025588;28;51147;-63
2022/01/17 01:47:26;;;;;;;;;31.25;31.00;;;;;-147.17;100.00;50218.03;5020615;28;51119;-64
2022/01/17 01:49:52;;;;;;;;;33.00;29.50;;;;;-147.17;100.00;50269.22;5020627;28;51155;-65
2022/01/17 01:52:18;;;;;;;;;33.25;32.00;;;;;-147.17;100.00;50255.44;5029687;28;51052;-65
2022/01/17 01:54:43;;;;;;;;;32.00;30.00;;;;;-147.17;100.00;50225.91;5018016;28;51043;-66
2022/01/17 01:57:09;;;;;;;;;28.25;27.00;;;;;-147.17;100.00;50227.88;5028062;28;51146;-62
2022/01/17 01:59:37;;;;;;;;;34.00;31.00;;;;;-147.17;100.00;50271.19;5027929;28;51340;-64
2022/01/17 02:02:03;;;;;;;;;34.00;32.50;;;;;-147.17;100.00;50241.66;5027680;28;51341;-63
2022/01/17 02:04:29;;;;;;;;;37.50;31.25;;;;;-147.17;100.00;50241.66;5025814;28;51051;-65
2022/01/17 02:06:55;;;;;;;;;31.75;30.25;;;;;-147.17;100.00;50206.22;5031998;28;51153;-66
2022/01/17 02:09:23;;;;;;;;;35.75;32.25;;;;;-147.17;100.00;50202.28;5031171;28;51261;-64
2022/01/17 02:11:49;;;;;;;;;35.00;29.50;;;;;-147.17;100.00;50237.72;5031589;28;51154;-66
2022/01/17 02:14:14;;;;;;;;;36.75;33.25;;;;;-147.17;100.00;50221.97;5021275;28;51104;-66
2022/01/17 02:16:41;;;;;;;;;33.00;31.00;;;;;-147.17;100.00;50247.56;5022443;28;51124;-65
2022/01/17 02:19:06;;;;;;;;;34.00;29.25;;;;;-147.17;100.00;50221.97;5028243;28;51364;-65
2022/01/17 02:21:44;;;;;;;;;33.50;30.25;;;;;-147.17;100.00;50237.72;5018529;28;51601;-66
2022/01/17 02:24:10;;;;;;;;;34.00;31.25;;;;;-147.17;100.00;50265.28;5030837;28;51249;-65
2022/01/17 02:26:35;;;;;;;;;36.25;31.00;;;;;-147.17;100.00;50227.88;5023657;28;51730;-65
2022/01/17 02:29:00;;;;;;;;;33.00;29.50;;;;;-147.17;100.00;50223.94;5029740;28;51617;-65
2022/01/17 02:31:28;;;;;;;;;32.25;30.00;;;;;-147.17;100.00;50225.91;5024420;28;52831;-64
2022/01/17 02:33:53;;;;;;;;;35.75;32.75;;;;;-147.17;100.00;50229.84;5024442;28;50987;-64
2022/01/17 02:36:20;;;;;;;;;31.75;31.00;;;;;-147.17;100.00;50247.56;5022921;28;51149;-64
2022/01/17 02:38:45;;;;;;;;;32.50;30.75;;;;;-147.17;100.00;50241.66;5029507;28;51577;-64
2022/01/17 02:41:14;;;;;;;;;39.00;34.75;;;;;-147.17;100.00;50233.78;5014332;28;51984;-64
2022/01/17 02:43:40;;;;;;;;;37.25;34.25;;;;;-147.17;100.00;50247.56;5031493;28;51294;-65
2022/01/17 02:48:38;;;;;;;;;40.50;34.00;;;;;-147.17;100.00;50216.06;5021616;28;51159;-65
2022/01/17 02:51:04;;;;;;;;;34.00;31.75;;;;;-147.17;100.00;50253.47;5013779;28;51249;-64
2022/01/17 02:53:30;;;;;;;;;34.25;31.50;;;;;-147.17;100.00;50241.66;5013126;28;51194;-64
2022/01/17 02:55:57;;;;;;;;;36.25;32.75;;;;;-147.17;100.00;50216.06;5017807;28;51328;-64
2022/01/17 02:58:24;;;;;;;;;37.00;32.75;;;;;-147.17;100.00;50229.84;5021421;28;51253;-64
2022/01/17 03:00:52;;;;;;;;;38.00;34.00;;;;;-147.17;100.00;50214.09;5024073;28;52360;-63
2022/01/17 03:03:20;;;;;;;;;32.75;28.00;;;;;-147.17;100.00;50218.03;5018080;28;51035;-64
2022/01/17 03:05:45;;;;;;;;;32.00;28.75;;;;;-147.17;100.00;50235.75;5028311;28;50975;-64
2022/01/17 03:08:12;;;;;;;;;27.75;26.25;;;;;-147.17;100.00;50210.16;5031433;28;51387;-64
2022/01/17 03:10:41;;;;;;;;;29.00;26.75;;;;;-147.17;100.00;50241.66;5031493;28;51351;-64
2022/01/17 03:13:15;;;;;;;;;30.50;30.00;;;;;-147.17;100.00;50227.88;5012955;28;51122;-65
2022/01/17 03:15:43;;;;;;;;;32.50;31.75;;;;;-147.17;100.00;50249.53;5029446;28;50901;-65
2022/01/17 03:18:08;;;;;;;;;33.00;31.25;;;;;-147.17;100.00;50241.66;5025651;28;51035;-65
2022/01/17 03:20:34;;;;;;;;;34.75;31.00;;;;;-147.17;100.00;50257.41;5018603;28;51793;-65
2022/01/17 03:23:00;;;;;;;;;32.75;31.25;;;;;-147.17;100.00;50237.72;5016055;28;51167;-65
2022/01/17 03:25:25;;;;;;;;;34.75;30.50;;;;;-147.17;100.00;50239.69;5017285;28;51301;-65
2022/01/17 03:27:50;;;;;;;;;30.50;30.00;;;;;-147.17;100.00;50231.81;5023308;28;51132;-65
2022/01/17 03:30:16;;;;;;;;;31.75;30.50;;;;;-147.17;100.00;50200.31;5022883;28;51933;-65
2022/01/17 03:32:41;;;;;;;;;34.50;33.50;;;;;-147.17;100.00;50220.00;5027831;28;51050;-64
2022/01/17 03:35:08;;;;;;;;;29.25;28.50;;;;;-147.17;100.00;50227.88;5026041;28;51090;-64
2022/01/17 03:37:33;;;;;;;;;30.50;29.25;;;;;-147.17;100.00;50231.81;5024648;28;51170;-64
2022/01/17 03:39:59;;;;;;;;;33.50;31.75;;;;;-147.17;100.00;50239.69;5020580;28;51716;-64
2022/01/17 03:42:24;;;;;;;;;40.25;36.00;;;;;-147.17;100.00;50225.91;5020004;28;51065;-64
2022/01/17 03:44:51;;;;;;;;;28.25;25.25;;;;;-147.17;100.00;50214.09;5018563;28;51136;-64
2022/01/17 03:47:17;;;;;;;;;33.25;29.25;;;;;-147.17;100.00;50233.78;5016365;28;51115;-64
2022/01/17 03:49:42;;;;;;;;;36.50;33.25;;;;;-147.17;100.00;50241.66;5029891;28;51307;-65
2022/01/17 03:52:07;;;;;;;;;29.50;28.75;;;;;-147.17;100.00;50245.59;5028491;28;51091;-64
2022/01/17 03:54:33;;;;;;;;;38.75;32.00;;;;;-147.17;100.00;50267.25;5019249;28;51157;-64
2022/01/17 03:56:58;;;;;;;;;32.25;29.00;;;;;-147.17;100.00;50216.06;5017550;28;52669;-64
2022/01/17 03:59:24;;;;;;;;;30.25;28.50;;;;;-147.17;100.00;50265.28;5026886;28;51205;-65
2022/01/17 04:01:50;;;;;;;;;29.25;26.75;;;;;-147.17;100.00;50249.53;5013375;28;51526;-65
2022/01/17 04:04:15;;;;;;;;;32.75;30.25;;;;;-147.17;100.00;50233.78;5017034;28;51160;-65
2022/01/17 04:06:41;;;;;;;;;32.50;30.50;;;;;-147.17;100.00;50216.06;5032139;28;51340;-64
2022/01/17 04:09:06;;;;;;;;;35.00;33.75;;;;;-147.17;100.00;50237.72;5027203;28;50932;-65
2022/01/17 04:11:32;;;;;;;;;29.75;28.50;;;;;-147.17;100.00;50245.59;5022600;28;50971;-64
2022/01/17 04:13:57;;;;;;;;;37.00;33.25;;;;;-147.17;100.00;50253.47;5013013;28;51258;-64
2022/01/17 04:16:23;;;;;;;;;32.25;31.25;;;;;-147.17;100.00;50251.50;5012773;28;51095;-65
2022/01/17 04:18:48;;;;;;;;;26.50;25.75;;;;;-147.17;100.00;50300.72;5015111;28;50931;-64
2022/01/17 04:21:13;;;;;;;;;32.75;29.75;;;;;-147.17;100.00;50283.00;5031498;28;50951;-64
2022/01/17 04:23:39;;;;;;;;;31.50;29.25;;;;;-147.17;100.00;50269.22;5016737;28;51146;-64
2022/01/17 04:26:04;;;;;;;;;34.75;30.25;;;;;-147.17;100.00;50269.22;5021730;28;51277;-64
2022/01/17 04:28:30;;;;;;;;;27.50;26.50;;;;;-147.17;100.00;50267.25;5016545;28;52245;-64
2022/01/17 04:30:56;;;;;;;;;27.75;25.75;;;;;-147.17;100.00;50257.41;5014757;28;51130;-64
2022/01/17 04:33:21;;;;;;;;;24.75;22.75;;;;;-147.17;100.00;50275.13;5024928;28;51273;-64
2022/01/17 04:35:47;;;;;;;;;23.25;20.00;;;;;-147.17;100.00;50296.78;5021172;28;51177;-64
2022/01/17 04:38:17;;;;;;;;;25.25;23.75;;;;;-147.17;100.00;50281.03;5030562;28;51270;-64
2022/01/17 04:40:46;;;;;;;;;21.50;20.75;;;;;-147.17;100.00;50304.66;5011818;28;51134;-63
2022/01/17 04:43:44;;;;;;;;;20.75;19.50;;;;;-147.17;100.00;50296.78;5017770;28;51182;-63
2022/01/17 04:45:59;;;;;;;;;19.25;18.50;;;;;-147.17;100.00;50332.19;5011477;28;51055;-63
2022/01/17 04:48:26;;;;;;;;;23.75;22.25;;;;;-147.17;100.00;50332.19;5016324;28;51202;-64
2022/01/17 04:50:52;;;;;;;;;23.75;20.00;;;;;-147.17;100.00;50298.75;5031666;28;51071;-63
2022/01/17 04:53:20;;;;;;;;;20.75;20.00;;;;;-147.17;100.00;50316.44;5020206;28;51182;-64
2022/01/17 04:55:46;;;;;;;;;19.25;17.25;;;;;-147.17;100.00;50367.63;5021265;28;51120;-64
2022/01/17 04:58:12;;;;;;;;;14.50;14.00;;;;;-147.17;100.00;50344.00;5022495;28;51225;-63
2022/01/17 05:00:45;;;;;;;;;17.00;15.00;;;;;-147.17;100.00;50347.94;5025191;28;51317;-65
2022/01/17 05:03:11;;;;;;;;;19.50;18.00;;;;;-147.17;100.00;50330.22;5014132;28;51055;-65
2022/01/17 05:05:37;;;;;;;;;14.25;14.25;;;;;-147.17;100.00;50351.88;5030116;28;51035;-65
2022/01/17 05:08:02;;;;;;;;;14.50;13.50;;;;;-147.17;100.00;50308.59;5031330;28;51804;-65
2022/01/17 05:10:27;;;;;;;;;15.75;15.00;;;;;-147.17;100.00;50379.44;5024710;28;51465;-65
2022/01/17 05:12:53;;;;;;;;;17.25;16.00;;;;;-147.17;100.00;50399.13;5026552;28;51485;-65
2022/01/17 05:15:33;;;;;;;;;22.00;20.25;;;;;-147.17;100.00;50340.06;5022850;28;51254;-65
2022/01/17 05:20:37;;;;;;;;;20.25;20.25;;;;;-147.17;100.00;50338.09;5013841;28;51028;-64
2022/01/17 05:23:03;;;;;;;;;21.25;19.75;;;;;-147.17;100.00;50391.25;5016433;28;51256;-64
2022/01/17 05:25:29;;;;;;;;;20.00;19.50;;;;;-147.17;100.00;50359.75;5016037;28;51260;-65
2022/01/17 05:27:54;;;;;;;;;22.75;21.75;;;;;-147.17;100.00;50330.22;5025491;28;51883;-65
2022/01/17 05:30:22;;;;;;;;;16.00;16.00;;;;;-147.17;100.00;50334.16;5013673;28;51112;-63
2022/01/17 05:32:49;;;;;;;;;18.50;18.50;;;;;-147.17;100.00;50355.81;5029708;28;51264;-63
2022/01/17 05:35:14;;;;;;;;;20.25;18.25;;;;;-147.17;100.00;50371.56;5028009;28;51113;-63
2022/01/17 05:37:41;;;;;;;;;22.50;20.25;;;;;-147.17;100.00;50361.72;5029508;28;52866;-65
2022/01/17 05:40:08;;;;;;;;;25.25;23.00;;;;;-147.17;100.00;50367.63;5022135;28;51027;-64
2022/01/17 05:42:34;;;;;;;;;22.50;19.50;;;;;-147.17;100.00;50363.69;5024165;28;51198;-63
2022/01/17 05:45:00;;;;;;;;;22.00;21.75;;;;;-147.17;100.00;50320.38;5017269;28;51448;-64
2022/01/17 05:47:26;;;;;;;;;24.75;23.25;;;;;-147.17;100.00;50328.25;5024799;28;51170;-64
2022/01/17 05:49:51;;;;;;;;;22.25;21.00;;;;;-147.17;100.00;50332.19;5026652;28;51188;-64
2022/01/17 05:52:17;;;;;;;;;18.75;17.50;;;;;-147.17;100.00;50355.81;5026785;28;51151;-64
2022/01/17 05:54:43;;;;;;;;;23.25;21.00;;;;;-147.17;100.00;50326.28;5012658;28;52280;-64
2022/01/17 05:57:08;;;;;;;;;19.00;17.25;;;;;-147.17;100.00;50324.31;5015564;28;51059;-64
2022/01/17 05:59:34;;;;;;;;;24.00;21.00;;;;;-147.17;100.00;50332.19;5020373;28;51139;-64
2022/01/17 06:01:59;;;;;;;;;24.25;22.00;;;;;-147.17;100.00;50347.94;5025087;28;51199;-64
2022/01/17 06:04:25;;;;;;;;;22.00;19.75;;;;;-147.17;100.00;50367.63;5024564;28;51090;-64
2022/01/17 06:06:50;;;;;;;;;22.50;20.50;;;;;-147.17;100.00;50332.19;5020657;28;51661;-64
2022/01/17 06:09:16;;;;;;;;;27.75;25.25;;;;;-147.17;100.00;50340.06;5029222;28;51270;-64
2022/01/17 06:11:41;;;;;;;;;25.25;24.50;;;;;-147.17;100.00;50338.09;5029522;28;51115;-64
2022/01/17 06:14:08;;;;;;;;;27.00;23.75;;;;;-147.17;100.00;50306.63;5027522;28;50988;-63
2022/01/17 06:16:35;;;;;;;;;30.50;25.00;;;;;-147.17;100.00;50322.34;5032860;28;54038;-64
2022/01/17 06:19:00;;;;;;;;;28.75;25.25;;;;;-147.17;100.00;50296.78;5032184;28;51197;-63
2022/01/17 06:21:26;;;;;;;;;27.75;23.50;;;;;-147.17;100.00;50312.53;5033705;28;51251;-64
2022/01/17 06:23:52;;;;;;;;;28.50;26.75;;;;;-147.17;100.00;50322.34;5016231;28;51314;-65
2022/01/17 06:26:18;;;;;;;;;25.25;23.75;;;;;-147.17;100.00;50326.28;5017336;28;51003;-64
2022/01/17 06:28:44;;;;;;;;;25.75;23.00;;;;;-147.17;100.00;50312.53;5029645;28;51021;-65
2022/01/17 06:31:09;;;;;;;;;28.75;25.00;;;;;-147.17;100.00;50355.81;5020368;28;51258;-65
2022/01/17 06:33:35;;;;;;;;;30.25;25.50;;;;;-147.17;100.00;50298.75;5018862;28;51077;-65
2022/01/17 06:36:00;;;;;;;;;24.00;24.00;;;;;-147.17;100.00;50304.66;5012484;28;53424;-65
2022/01/17 06:38:26;;;;;;;;;24.25;22.75;;;;;-147.17;100.00;50344.00;5013145;28;51086;-65
2022/01/17 06:40:51;;;;;;;;;25.75;24.50;;;;;-147.17;100.00;50292.84;5027110;28;51586;-65
2022/01/17 06:43:16;;;;;;;;;28.00;26.00;;;;;-147.17;100.00;50304.66;5029894;28;51498;-64
2022/01/17 06:45:43;;;;;;;;;27.00;25.00;;;;;-147.17;100.00;50322.34;5011915;28;51181;-64
2022/01/17 06:48:08;;;;;;;;;24.50;21.25;;;;;-147.17;100.00;50320.38;5015880;28;51224;-65
2022/01/17 06:50:35;;;;;;;;;22.75;19.75;;;;;-147.17;100.00;50294.81;5021948;28;51220;-65
2022/01/17 06:53:02;;;;;;;;;25.25;24.75;;;;;-147.17;100.00;50284.97;5024819;28;51422;-65
2022/01/17 06:55:27;;;;;;;;;30.50;27.75;;;;;-147.17;100.00;50304.66;5012430;28;51114;-65
2022/01/17 06:57:53;;;;;;;;;30.75;28.00;;;;;-147.17;100.00;50328.25;5021184;28;51081;-65
2022/01/17 07:00:18;;;;;;;;;24.50;23.50;;;;;-147.17;100.00;50320.38;5015876;28;52249;-64
2022/01/17 07:02:44;;;;;;;;;29.50;23.25;;;;;-147.17;100.00;50300.72;5013047;28;51148;-66
2022/01/17 07:05:09;;;;;;;;;30.75;27.25;;;;;-147.17;100.00;50316.44;5022214;28;51106;-64
2022/01/17 07:07:35;;;;;;;;;28.75;26.25;;;;;-147.17;100.00;50294.81;5029379;28;51205;-64
2022/01/17 07:10:00;;;;;;;;;32.00;30.00;;;;;-147.17;100.00;50294.81;5015769;28;51127;-65
2022/01/17 07:12:25;;;;;;;;;29.00;26.50;;;;;-147.17;100.00;50320.38;5020295;28;51023;-65
2022/01/17 07:14:51;;;;;;;;;26.75;25.00;;;;;-147.17;100.00;50284.97;5012426;28;51597;-64
2022/01/17 07:17:16;;;;;;;;;30.75;28.50;;;;;-147.17;100.00;50296.78;5025056;28;51040;-65
2022/01/17 07:19:41;;;;;;;;;29.50;26.00;;;;;-147.17;100.00;50286.94;5020881;28;51240;-66
2022/01/17 07:22:08;;;;;;;;;28.25;26.50;;;;;-147.17;100.00;50300.72;5011791;28;51333;-65
2022/01/17 07:24:34;;;;;;;;;29.75;28.00;;;;;-147.17;100.00;50284.97;5024570;28;51442;-65
2022/01/17 07:27:00;;;;;;;;;32.75;27.75;;;;;-147.17;100.00;50300.72;5027955;28;51948;-71
2022/01/17 07:29:26;;;;;;;;;30.25;27.00;;;;;-147.17;100.00;50296.78;5023442;28;51137;-71
2022/01/17 07:31:52;;;;;;;;;31.25;28.00;;;;;-147.17;100.00;50306.63;5018708;28;51198;-70
2022/01/17 07:34:18;;;;;;;;;31.25;28.50;;;;;-147.17;100.00;50265.28;5011666;28;52011;-72
2022/01/17 07:36:43;;;;;;;;;34.50;29.75;;;;;-147.17;100.00;50316.44;5015899;28;51048;-73
2022/01/17 07:39:09;;;;;;;;;34.50;31.00;;;;;-147.17;100.00;50316.44;5011628;28;50930;-74
2022/01/17 07:41:35;;;;;;;;;36.50;35.75;;;;;-147.17;100.00;50316.44;5016295;28;50956;-73
2022/01/17 07:44:04;;;;;;;;;37.25;35.00;;;;;-147.17;100.00;50304.66;5030769;28;53598;-70
2022/01/17 07:46:36;;;;;;;;;41.75;35.00;;;;;-147.17;100.00;50316.44;5028177;28;51111;-74
2022/01/17 07:49:10;;;;;;;;;40.25;35.50;;;;;-147.17;100.00;50320.38;5011395;28;51015;-76
2022/01/17 07:51:38;;;;;;;;;36.75;34.75;;;;;-147.17;100.00;50314.47;5024479;28;51156;-77
2022/01/17 07:54:04;;;;;;;;;33.50;33.00;;;;;-147.17;100.00;50316.44;5025617;28;51848;-71
2022/01/17 07:56:31;;;;;;;;;37.25;36.00;;;;;-147.17;100.00;50300.72;5013184;28;51179;-70
2022/01/17 07:58:56;;;;;;;;;35.50;33.25;;;;;-147.17;100.00;50281.03;5017592;28;51135;-70
2022/01/17 08:01:22;;;;;;;;;38.00;35.50;;;;;-147.17;100.00;50300.72;5016659;28;51221;-70
2022/01/17 08:03:47;;;;;;;;;37.25;32.00;;;;;-147.17;100.00;50292.84;5012150;28;50968;-70
2022/01/17 08:06:13;;;;;;;;;32.25;29.00;;;;;-147.17;100.00;50277.09;5012778;28;50845;-70
2022/01/17 08:08:38;;;;;;;;;30.00;27.75;;;;;-147.17;100.00;50261.34;5011555;28;51177;-70
2022/01/17 08:11:04;;;;;;;;;34.50;32.00;;;;;-147.17;100.00;50277.09;5013787;28;51203;-70
2022/01/17 08:13:29;;;;;;;;;32.25;31.25;;;;;-147.17;100.00;50308.59;5012589;28;52037;-70
2022/01/17 08:15:55;;;;;;;;;33.25;31.00;;;;;-147.17;100.00;50300.72;5012374;28;50952;-71
2022/01/17 08:18:21;;;;;;;;;28.75;27.00;;;;;-147.17;100.00;50298.75;5012307;28;50966;-70
2022/01/17 08:20:47;;;;;;;;;34.75;32.00;;;;;-147.17;100.00;50292.84;5016958;28;51461;-70
2022/01/17 08:23:12;;;;;;;;;33.25;31.25;;;;;-147.17;100.00;50275.13;5032034;28;50999;-70
2022/01/17 08:25:38;;;;;;;;;37.75;33.50;;;;;-147.17;100.00;50286.94;5032319;28;51166;-70
2022/01/17 08:28:04;;;;;;;;;30.50;28.25;;;;;-147.17;100.00;50281.03;5024197;28;50949;-69
2022/01/17 08:30:31;;;;;;;;;33.75;32.50;;;;;-147.17;100.00;50267.25;5017527;28;51063;-70
2022/01/17 08:32:56;;;;;;;;;32.75;31.25;;;;;-147.17;100.00;50253.47;5020446;28;51649;-70
2022/01/17 08:35:22;;;;;;;;;36.25;32.00;;;;;-147.17;100.00;50320.38;5011807;28;51141;-72
2022/01/17 08:37:48;;;;;;;;;40.75;33.50;;;;;-147.17;100.00;50298.75;5021753;28;51114;-71
2022/01/17 08:40:15;;;;;;;;;32.00;27.75;;;;;-147.17;100.00;50281.03;5026660;28;51241;-71
2022/01/17 08:42:41;;;;;;;;;32.25;26.25;;;;;-147.17;100.00;50253.47;5010939;28;51851;-71
2022/01/17 08:45:09;;;;;;;;;33.25;33.00;;;;;-147.17;100.00;50308.59;5012576;28;51128;-69
2022/01/17 08:47:34;;;;;;;;;39.00;35.50;;;;;-147.17;100.00;50290.88;5024707;28;51068;-70
2022/01/17 08:50:00;;;;;;;;;32.75;31.25;;;;;-147.17;100.00;50288.91;5027367;28;51005;-70
2022/01/17 08:52:26;;;;;;;;;33.25;31.00;;;;;-147.17;100.00;50269.22;5018672;28;51990;-71
2022/01/17 08:54:51;;;;;;;;;33.50;31.75;;;;;-147.17;100.00;50281.03;5011882;28;51197;-71
2022/01/17 08:57:17;;;;;;;;;28.50;28.50;;;;;-147.17;100.00;50277.09;5011672;28;50959;-71
2022/01/17 08:59:44;;;;;;;;;35.75;30.50;;;;;-147.17;100.00;50277.09;5013796;28;51392;-71
2022/01/17 09:02:10;;;;;;;;;34.25;30.25;;;;;-147.17;100.00;50273.16;5015420;28;51693;-70
2022/01/17 09:04:40;;;;;;;;;34.00;31.75;;;;;-147.17;100.00;50259.38;5024173;28;51277;-69
2022/01/17 09:07:08;;;;;;;;;35.50;32.75;;;;;-147.17;100.00;50281.03;5031134;28;51181;-70
2022/01/17 09:09:34;;;;;;;;;36.75;33.50;;;;;-147.17;100.00;50316.44;5031382;28;51138;-71
2022/01/17 09:11:59;;;;;;;;;32.50;29.00;;;;;-147.17;100.00;50316.44;5029977;28;54445;-69
2022/01/17 09:14:24;;;;;;;;;42.50;37.00;;;;;-147.17;100.00;50283.00;5031222;28;50976;-70
2022/01/17 09:16:50;;;;;;;;;35.00;32.75;;;;;-147.17;100.00;50338.09;5030090;28;50975;-70
2022/01/17 09:19:15;;;;;;;;;37.75;33.25;;;;;-147.17;100.00;50351.88;5025611;28;51059;-70
2022/01/17 09:21:41;;;;;;;;;42.50;36.00;;;;;-147.17;100.00;50340.06;5009808;28;52045;-70
2022/01/17 09:24:07;;;;;;;;;39.75;36.00;;;;;-147.17;100.00;50342.03;5028504;28;51889;-70
2022/01/17 09:26:32;;;;;;;;;42.25;37.00;;;;;-147.17;100.00;50332.19;5001456;28;51111;-70
2022/01/17 09:28:57;;;;;;;;;36.00;33.50;;;;;-147.17;100.00;50357.78;5023213;28;51500;-70
2022/01/17 09:31:23;;;;;;;;;38.75;34.75;;;;;-147.17;100.00;50363.69;5024919;28;51805;-70
2022/01/17 09:33:48;;;;;;;;;42.25;37.75;;;;;-147.17;100.00;50355.81;5027826;28;51003;-71
2022/01/17 09:36:14;;;;;;;;;37.25;36.00;;;;;-147.17;100.00;50312.53;5023710;28;51259;-70
2022/01/17 09:38:40;;;;;;;;;35.50;31.25;;;;;-147.17;100.00;50318.41;5027167;28;51178;-70
2022/01/17 09:41:06;;;;;;;;;35.25;31.25;;;;;-147.17;100.00;50344.00;5012880;28;52115;-70
2022/01/17 09:43:32;;;;;;;;;35.75;30.75;;;;;-147.17;100.00;50312.53;5029111;28;51094;-70
2022/01/17 09:45:57;;;;;;;;;28.25;25.00;;;;;-147.17;100.00;50328.25;5034359;28;51046;-68
2022/01/17 09:48:34;;;;;;;;;32.00;29.25;;;;;-147.17;100.00;50304.66;5025358;28;51154;-70
2022/01/17 09:51:05;;;;;;;;;32.00;27.00;;;;;-147.17;100.00;50340.06;5014216;28;51850;-69
2022/01/17 09:53:38;;;;;;;;;40.25;36.00;;;;;-147.17;100.00;50324.31;5019967;28;51127;-68
2022/01/17 09:56:07;;;;;;;;;39.50;36.00;;;;;-147.17;100.00;50353.84;5029496;28;50960;-70
2022/01/17 09:58:36;;;;;;;;;33.50;31.75;;;;;-147.17;100.00;50340.06;5021559;28;51093;-70
2022/01/17 10:01:04;;;;;;;;;38.00;31.50;;;;;-147.17;100.00;50351.88;5025974;28;51178;-68
2022/01/17 10:03:30;;;;;;;;;35.00;34.50;;;;;-147.17;100.00;50359.75;5012477;28;51083;-71
2022/01/17 10:05:56;;;;;;;;;37.75;35.00;;;;;-147.17;100.00;50342.03;5016886;28;51521;-69
2022/01/17 10:08:22;;;;;;;;;38.25;33.00;;;;;-147.17;100.00;50332.19;5014936;28;51646;-70
2022/01/17 10:10:58;;;;;;;;;37.50;35.50;;;;;-147.17;100.00;50365.66;5023313;28;53828;-70
2022/01/17 10:13:37;;;;;;;;;38.00;32.75;;;;;-147.17;100.00;50345.97;5020179;28;51077;-71
2022/01/17 10:16:15;;;;;;;;;33.75;28.75;;;;;-147.17;100.00;50344.00;5015694;28;51052;-70
2022/01/17 10:18:50;;;;;;;;;35.00;32.50;;;;;-147.17;100.00;50330.22;5024800;28;51059;-70
2022/01/17 10:21:28;;;;;;;;;36.75;33.25;;;;;-147.17;100.00;50359.75;5027405;28;51359;-69
2022/01/17 10:35:23;;;;;;;;;36.75;34.25;;;;;-147.17;100.00;50345.97;5023365;28;51125;-78
2022/01/17 10:38:14;;;;;;;;;38.50;35.25;;;;;-147.17;100.00;50336.13;5017713;28;51114;-68
2022/01/17 10:40:43;;;;;;;;;37.00;33.50;;;;;-147.17;100.00;50357.78;5013430;28;50959;-68
2022/01/17 10:43:20;;;;;;;;;42.75;38.00;;;;;-147.17;100.00;50347.94;5014151;28;51854;-69
2022/01/17 10:45:46;;;;;;;;;39.50;35.50;;;;;-147.17;100.00;50383.38;5022682;28;50993;-67
2022/01/17 10:48:12;;;;;;;;;36.00;33.50;;;;;-147.17;100.00;50367.63;5028871;28;51112;-66
2022/01/17 10:50:41;;;;;;;;;35.75;34.25;;;;;-147.17;100.00;50379.44;5025901;28;51261;-69
2022/01/17 10:53:09;;;;;;;;;36.00;34.50;;;;;-147.17;100.00;50361.72;5015077;28;51963;-69
2022/01/17 10:55:42;;;;;;;;;41.00;35.00;;;;;-147.17;100.00;50361.72;5013252;28;50969;-70
2022/01/17 10:58:12;;;;;;;;;34.00;29.00;;;;;-147.17;100.00;50371.56;5030408;28;51293;-70
2022/01/17 11:00:46;;;;;;;;;36.50;34.00;;;;;-147.17;100.00;50367.63;5033119;28;50980;-69
2022/01/17 11:03:14;;;;;;;;;36.25;34.00;;;;;-147.17;100.00;50342.03;5032870;28;51006;-69
2022/01/17 11:05:43;;;;;;;;;37.25;32.25;;;;;-147.17;100.00;50375.50;5013176;28;51173;-69
2022/01/17 11:08:09;;;;;;;;;34.00;33.75;;;;;-147.17;100.00;50367.63;5013051;28;51139;-70
2022/01/17 11:10:38;;;;;;;;;40.50;37.25;;;;;-147.17;100.00;50361.72;5013180;28;50883;-69
2022/01/17 11:13:07;;;;;;;;;34.00;31.75;;;;;-147.17;100.00;50355.81;5013016;28;51074;-69
2022/01/17 11:15:35;;;;;;;;;29.50;28.75;;;;;-147.17;100.00;50359.75;5013711;28;51189;-68
2022/01/17 11:18:10;;;;;;;;;28.00;24.00;;;;;-147.17;100.00;50336.13;5011422;28;51092;-69
2022/01/17 11:20:36;;;;;;;;;35.00;31.25;;;;;-147.17;100.00;50320.38;5029523;28;51048;-69
2022/01/17 11:23:02;;;;;;;;;37.50;31.25;;;;;-147.17;100.00;50344.00;5032114;28;52180;-69